sensor_id;sensor_type;location;lat;lon;timestamp;pressure;altitude;pressure_sealevel;temperature
11424;BMP180;5768;51.476;7.210;2023-01-31T00:04:49;101009.00;;;7.30
11424;BMP180;5768;51.476;7.210;2023-01-31T00:09:51;101008.00;;;7.30
11424;BMP180;5768;51.476;7.210;2023-01-31T00:14:53;101020.00;;;7.30
11424;BMP180;5768;51.476;7.210;2023-01-31T00:19:57;101005.00;;;7.20
11424;BMP180;5768;51.476;7.210;2023-01-31T00:24:59;101010.00;;;7.10
11424;BMP180;5768;51.476;7.210;2023-01-31T00:30:03;101025.00;;;7.10
11424;BMP180;5768;51.476;7.210;2023-01-31T00:35:08;101011.00;;;7.20
11424;BMP180;5768;51.476;7.210;2023-01-31T00:40:11;101015.00;;;7.30
11424;BMP180;5768;51.476;7.210;2023-01-31T00:45:13;101009.00;;;7.50
11424;BMP180;5768;51.476;7.210;2023-01-31T00:50:17;101018.00;;;7.60
11424;BMP180;5768;51.476;7.210;2023-01-31T00:55:20;101003.00;;;7.70
11424;BMP180;5768;51.476;7.210;2023-01-31T01:00:22;101003.00;;;7.60
11424;BMP180;5768;51.476;7.210;2023-01-31T01:05:25;101014.00;;;7.60
11424;BMP180;5768;51.476;7.210;2023-01-31T01:10:31;101011.00;;;7.70
11424;BMP180;5768;51.476;7.210;2023-01-31T01:15:37;101021.00;;;7.70
11424;BMP180;5768;51.476;7.210;2023-01-31T01:20:41;101017.00;;;7.80
11424;BMP180;5768;51.476;7.210;2023-01-31T01:25:44;101005.00;;;7.70
11424;BMP180;5768;51.476;7.210;2023-01-31T01:30:46;101020.00;;;7.70
11424;BMP180;5768;51.476;7.210;2023-01-31T01:35:49;101000.00;;;7.70
11424;BMP180;5768;51.476;7.210;2023-01-31T01:40:51;101002.00;;;7.30
11424;BMP180;5768;51.476;7.210;2023-01-31T01:45:54;100999.00;;;7.20
11424;BMP180;5768;51.476;7.210;2023-01-31T01:50:58;100985.00;;;7.20
11424;BMP180;5768;51.476;7.210;2023-01-31T01:56:06;100987.00;;;7.20
11424;BMP180;5768;51.476;7.210;2023-01-31T02:01:10;100994.00;;;7.30
11424;BMP180;5768;51.476;7.210;2023-01-31T02:06:15;101008.00;;;7.30
11424;BMP180;5768;51.476;7.210;2023-01-31T02:11:23;100999.00;;;7.30
11424;BMP180;5768;51.476;7.210;2023-01-31T02:16:25;101015.00;;;7.40
11424;BMP180;5768;51.476;7.210;2023-01-31T02:22:05;101011.00;;;7.30
11424;BMP180;5768;51.476;7.210;2023-01-31T02:33:12;101028.00;;;7.30
11424;BMP180;5768;51.476;7.210;2023-01-31T02:38:33;101029.00;;;7.40
11424;BMP180;5768;51.476;7.210;2023-01-31T02:43:51;101022.00;;;7.40
11424;BMP180;5768;51.476;7.210;2023-01-31T02:49:20;101023.00;;;7.30
11424;BMP180;5768;51.476;7.210;2023-01-31T02:54:36;101020.00;;;7.30
11424;BMP180;5768;51.476;7.210;2023-01-31T02:59:53;101015.00;;;7.40
11424;BMP180;5768;51.476;7.210;2023-01-31T03:04:57;101020.00;;;7.50
11424;BMP180;5768;51.476;7.210;2023-01-31T03:10:12;101015.00;;;7.50
11424;BMP180;5768;51.476;7.210;2023-01-31T03:15:35;101026.00;;;7.60
11424;BMP180;5768;51.476;7.210;2023-01-31T03:21:07;100989.00;;;7.70
11424;BMP180;5768;51.476;7.210;2023-01-31T03:26:10;100982.00;;;7.70
11424;BMP180;5768;51.476;7.210;2023-01-31T03:31:17;100991.00;;;7.60
11424;BMP180;5768;51.476;7.210;2023-01-31T03:36:30;100984.00;;;7.60
11424;BMP180;5768;51.476;7.210;2023-01-31T03:41:46;100967.00;;;7.50
11424;BMP180;5768;51.476;7.210;2023-01-31T03:46:54;100950.00;;;7.50
11424;BMP180;5768;51.476;7.210;2023-01-31T03:52:06;100950.00;;;7.50
11424;BMP180;5768;51.476;7.210;2023-01-31T03:57:17;100948.00;;;7.50
11424;BMP180;5768;51.476;7.210;2023-01-31T04:02:29;100942.00;;;7.40
11424;BMP180;5768;51.476;7.210;2023-01-31T04:07:35;100917.00;;;7.40
11424;BMP180;5768;51.476;7.210;2023-01-31T04:12:40;100903.00;;;7.20
11424;BMP180;5768;51.476;7.210;2023-01-31T04:17:42;100932.00;;;7.20
11424;BMP180;5768;51.476;7.210;2023-01-31T04:22:45;100934.00;;;7.10
11424;BMP180;5768;51.476;7.210;2023-01-31T04:27:48;100933.00;;;7.20
11424;BMP180;5768;51.476;7.210;2023-01-31T04:32:51;100943.00;;;7.40
11424;BMP180;5768;51.476;7.210;2023-01-31T04:37:54;100929.00;;;7.50
11424;BMP180;5768;51.476;7.210;2023-01-31T04:42:56;100944.00;;;7.60
11424;BMP180;5768;51.476;7.210;2023-01-31T04:47:58;100931.00;;;7.50
11424;BMP180;5768;51.476;7.210;2023-01-31T04:53:02;100926.00;;;7.50
11424;BMP180;5768;51.476;7.210;2023-01-31T04:58:05;100928.00;;;7.60
11424;BMP180;5768;51.476;7.210;2023-01-31T05:03:07;100918.00;;;7.50
11424;BMP180;5768;51.476;7.210;2023-01-31T05:08:10;100905.00;;;7.60
11424;BMP180;5768;51.476;7.210;2023-01-31T05:13:12;100915.00;;;7.60
11424;BMP180;5768;51.476;7.210;2023-01-31T05:18:15;100906.00;;;7.70
11424;BMP180;5768;51.476;7.210;2023-01-31T05:23:18;100884.00;;;7.70
11424;BMP180;5768;51.476;7.210;2023-01-31T05:28:21;100896.00;;;7.70
11424;BMP180;5768;51.476;7.210;2023-01-31T05:33:23;100881.00;;;7.70
11424;BMP180;5768;51.476;7.210;2023-01-31T05:38:28;100887.00;;;7.70
11424;BMP180;5768;51.476;7.210;2023-01-31T05:43:30;100879.00;;;7.70
11424;BMP180;5768;51.476;7.210;2023-01-31T05:48:32;100873.00;;;7.70
11424;BMP180;5768;51.476;7.210;2023-01-31T05:53:36;100876.00;;;7.70
11424;BMP180;5768;51.476;7.210;2023-01-31T05:58:38;100867.00;;;7.60
11424;BMP180;5768;51.476;7.210;2023-01-31T06:03:40;100864.00;;;7.70
11424;BMP180;5768;51.476;7.210;2023-01-31T06:08:43;100837.00;;;7.70
11424;BMP180;5768;51.476;7.210;2023-01-31T06:13:46;100806.00;;;7.60
11424;BMP180;5768;51.476;7.210;2023-01-31T06:18:49;100812.00;;;7.70
11424;BMP180;5768;51.476;7.210;2023-01-31T06:23:52;100829.00;;;7.70
11424;BMP180;5768;51.476;7.210;2023-01-31T06:28:54;100846.00;;;7.70
11424;BMP180;5768;51.476;7.210;2023-01-31T06:33:56;100848.00;;;7.80
11424;BMP180;5768;51.476;7.210;2023-01-31T06:38:59;100869.00;;;7.80
11424;BMP180;5768;51.476;7.210;2023-01-31T06:44:04;100871.00;;;7.80
11424;BMP180;5768;51.476;7.210;2023-01-31T06:49:06;100850.00;;;7.80
11424;BMP180;5768;51.476;7.210;2023-01-31T06:54:09;100848.00;;;7.70
11424;BMP180;5768;51.476;7.210;2023-01-31T06:59:12;100850.00;;;7.70
11424;BMP180;5768;51.476;7.210;2023-01-31T07:04:14;100860.00;;;7.70
11424;BMP180;5768;51.476;7.210;2023-01-31T07:09:17;100861.00;;;7.70
11424;BMP180;5768;51.476;7.210;2023-01-31T07:14:20;100866.00;;;7.60
11424;BMP180;5768;51.476;7.210;2023-01-31T07:19:22;100868.00;;;7.60
11424;BMP180;5768;51.476;7.210;2023-01-31T07:24:25;100870.00;;;7.70
11424;BMP180;5768;51.476;7.210;2023-01-31T07:29:27;100875.00;;;7.80
11424;BMP180;5768;51.476;7.210;2023-01-31T07:34:29;100859.00;;;7.90
11424;BMP180;5768;51.476;7.210;2023-01-31T07:39:33;100863.00;;;7.80
11424;BMP180;5768;51.476;7.210;2023-01-31T07:44:35;100864.00;;;7.80
11424;BMP180;5768;51.476;7.210;2023-01-31T07:49:37;100855.00;;;7.90
11424;BMP180;5768;51.476;7.210;2023-01-31T07:54:41;100870.00;;;8.00
11424;BMP180;5768;51.476;7.210;2023-01-31T07:59:43;100857.00;;;8.10
11424;BMP180;5768;51.476;7.210;2023-01-31T08:04:45;100843.00;;;8.20
11424;BMP180;5768;51.476;7.210;2023-01-31T08:09:49;100831.00;;;8.20
11424;BMP180;5768;51.476;7.210;2023-01-31T08:14:51;100820.00;;;8.30
11424;BMP180;5768;51.476;7.210;2023-01-31T08:19:53;100816.00;;;8.30
11424;BMP180;5768;51.476;7.210;2023-01-31T08:24:56;100804.00;;;8.40
11424;BMP180;5768;51.476;7.210;2023-01-31T08:29:58;100810.00;;;8.40
11424;BMP180;5768;51.476;7.210;2023-01-31T08:35:00;100829.00;;;8.40
11424;BMP180;5768;51.476;7.210;2023-01-31T08:40:06;100816.00;;;8.10
11424;BMP180;5768;51.476;7.210;2023-01-31T08:45:09;100816.00;;;8.00
11424;BMP180;5768;51.476;7.210;2023-01-31T08:50:12;100821.00;;;7.70
11424;BMP180;5768;51.476;7.210;2023-01-31T08:55:15;100797.00;;;7.60
11424;BMP180;5768;51.476;7.210;2023-01-31T09:00:19;100811.00;;;7.50
11424;BMP180;5768;51.476;7.210;2023-01-31T09:05:22;100786.00;;;7.30
11424;BMP180;5768;51.476;7.210;2023-01-31T09:10:26;100760.00;;;7.30
11424;BMP180;5768;51.476;7.210;2023-01-31T09:15:28;100756.00;;;7.50
11424;BMP180;5768;51.476;7.210;2023-01-31T09:20:30;100768.00;;;7.70
11424;BMP180;5768;51.476;7.210;2023-01-31T09:25:34;100751.00;;;7.80
11424;BMP180;5768;51.476;7.210;2023-01-31T09:30:39;100755.00;;;7.90
11424;BMP180;5768;51.476;7.210;2023-01-31T09:35:41;100766.00;;;8.00
11424;BMP180;5768;51.476;7.210;2023-01-31T09:40:45;100742.00;;;8.00
11424;BMP180;5768;51.476;7.210;2023-01-31T09:45:49;100739.00;;;8.20
11424;BMP180;5768;51.476;7.210;2023-01-31T09:50:57;100713.00;;;8.30
11424;BMP180;5768;51.476;7.210;2023-01-31T09:56:18;100736.00;;;8.40
11424;BMP180;5768;51.476;7.210;2023-01-31T10:01:29;100748.00;;;8.40
11424;BMP180;5768;51.476;7.210;2023-01-31T10:06:42;100724.00;;;8.50
11424;BMP180;5768;51.476;7.210;2023-01-31T10:11:53;100744.00;;;8.30
11424;BMP180;5768;51.476;7.210;2023-01-31T10:17:08;100742.00;;;8.20
11424;BMP180;5768;51.476;7.210;2023-01-31T10:22:20;100718.00;;;8.40
11424;BMP180;5768;51.476;7.210;2023-01-31T10:27:43;100692.00;;;8.30
11424;BMP180;5768;51.476;7.210;2023-01-31T10:32:54;100675.00;;;8.50
11424;BMP180;5768;51.476;7.210;2023-01-31T10:38:02;100688.00;;;8.70
11424;BMP180;5768;51.476;7.210;2023-01-31T10:43:17;100686.00;;;8.80
11424;BMP180;5768;51.476;7.210;2023-01-31T10:49:11;100697.00;;;8.70
11424;BMP180;5768;51.476;7.210;2023-01-31T10:54:28;100685.00;;;8.60
11424;BMP180;5768;51.476;7.210;2023-01-31T10:59:42;100669.00;;;8.50
11424;BMP180;5768;51.476;7.210;2023-01-31T11:04:45;100646.00;;;8.50
11424;BMP180;5768;51.476;7.210;2023-01-31T11:09:52;100668.00;;;8.60
11424;BMP180;5768;51.476;7.210;2023-01-31T11:15:06;100658.00;;;8.50
11424;BMP180;5768;51.476;7.210;2023-01-31T11:20:22;100649.00;;;8.70
11424;BMP180;5768;51.476;7.210;2023-01-31T11:25:28;100635.00;;;8.90
11424;BMP180;5768;51.476;7.210;2023-01-31T11:30:37;100656.00;;;9.10
11424;BMP180;5768;51.476;7.210;2023-01-31T11:35:51;100630.00;;;9.10
11424;BMP180;5768;51.476;7.210;2023-01-31T11:40:57;100644.00;;;9.10
11424;BMP180;5768;51.476;7.210;2023-01-31T11:46:02;100617.00;;;9.10
11424;BMP180;5768;51.476;7.210;2023-01-31T11:51:05;100616.00;;;9.20
11424;BMP180;5768;51.476;7.210;2023-01-31T11:56:14;100607.00;;;9.20
11424;BMP180;5768;51.476;7.210;2023-01-31T12:01:20;100623.00;;;9.30
11424;BMP180;5768;51.476;7.210;2023-01-31T12:06:30;100613.00;;;9.30
11424;BMP180;5768;51.476;7.210;2023-01-31T12:11:35;100608.00;;;9.40
11424;BMP180;5768;51.476;7.210;2023-01-31T12:16:40;100622.00;;;9.40
11424;BMP180;5768;51.476;7.210;2023-01-31T12:22:00;100619.00;;;9.40
11424;BMP180;5768;51.476;7.210;2023-01-31T12:27:21;100603.00;;;9.40
11424;BMP180;5768;51.476;7.210;2023-01-31T12:38:27;100583.00;;;9.50
11424;BMP180;5768;51.476;7.210;2023-01-31T12:43:59;100579.00;;;9.50
11424;BMP180;5768;51.476;7.210;2023-01-31T12:49:45;100555.00;;;9.40
11424;BMP180;5768;51.476;7.210;2023-01-31T12:55:05;100566.00;;;9.50
11424;BMP180;5768;51.476;7.210;2023-01-31T13:00:24;100574.00;;;9.50
11424;BMP180;5768;51.476;7.210;2023-01-31T13:05:38;100565.00;;;9.50
11424;BMP180;5768;51.476;7.210;2023-01-31T13:10:46;100555.00;;;9.50
11424;BMP180;5768;51.476;7.210;2023-01-31T13:15:53;100568.00;;;9.60
11424;BMP180;5768;51.476;7.210;2023-01-31T13:21:02;100565.00;;;9.50
11424;BMP180;5768;51.476;7.210;2023-01-31T13:26:12;100563.00;;;9.40
11424;BMP180;5768;51.476;7.210;2023-01-31T13:31:22;100572.00;;;9.20
11424;BMP180;5768;51.476;7.210;2023-01-31T13:36:31;100554.00;;;9.10
11424;BMP180;5768;51.476;7.210;2023-01-31T13:41:35;100561.00;;;9.00
11424;BMP180;5768;51.476;7.210;2023-01-31T13:46:49;100545.00;;;9.10
11424;BMP180;5768;51.476;7.210;2023-01-31T13:51:57;100559.00;;;9.20
11424;BMP180;5768;51.476;7.210;2023-01-31T13:57:02;100543.00;;;9.10
11424;BMP180;5768;51.476;7.210;2023-01-31T14:02:17;100544.00;;;9.10
11424;BMP180;5768;51.476;7.210;2023-01-31T14:07:22;100538.00;;;9.10
11424;BMP180;5768;51.476;7.210;2023-01-31T14:12:35;100536.00;;;9.00
11424;BMP180;5768;51.476;7.210;2023-01-31T14:17:59;100550.00;;;9.00
11424;BMP180;5768;51.476;7.210;2023-01-31T14:23:30;100527.00;;;9.00
11424;BMP180;5768;51.476;7.210;2023-01-31T14:28:33;100528.00;;;9.10
11424;BMP180;5768;51.476;7.210;2023-01-31T14:33:46;100536.00;;;9.20
11424;BMP180;5768;51.476;7.210;2023-01-31T14:39:34;100549.00;;;9.20
11424;BMP180;5768;51.476;7.210;2023-01-31T14:45:01;100538.00;;;9.20
11424;BMP180;5768;51.476;7.210;2023-01-31T14:50:33;100541.00;;;9.20
11424;BMP180;5768;51.476;7.210;2023-01-31T14:55:59;100559.00;;;9.20
11424;BMP180;5768;51.476;7.210;2023-01-31T15:01:06;100556.00;;;9.20
11424;BMP180;5768;51.476;7.210;2023-01-31T15:06:14;100555.00;;;9.40
11424;BMP180;5768;51.476;7.210;2023-01-31T15:11:40;100566.00;;;9.40
11424;BMP180;5768;51.476;7.210;2023-01-31T15:16:43;100581.00;;;9.50
11424;BMP180;5768;51.476;7.210;2023-01-31T15:21:48;100575.00;;;9.60
11424;BMP180;5768;51.476;7.210;2023-01-31T15:26:54;100569.00;;;9.70
11424;BMP180;5768;51.476;7.210;2023-01-31T15:32:05;100582.00;;;9.70
11424;BMP180;5768;51.476;7.210;2023-01-31T15:37:17;100573.00;;;9.70
11424;BMP180;5768;51.476;7.210;2023-01-31T15:42:26;100591.00;;;9.70
11424;BMP180;5768;51.476;7.210;2023-01-31T15:47:29;100601.00;;;9.70
11424;BMP180;5768;51.476;7.210;2023-01-31T15:52:31;100594.00;;;9.70
11424;BMP180;5768;51.476;7.210;2023-01-31T15:57:40;100606.00;;;9.80
11424;BMP180;5768;51.476;7.210;2023-01-31T16:02:46;100605.00;;;9.70
11424;BMP180;5768;51.476;7.210;2023-01-31T16:07:49;100608.00;;;9.80
11424;BMP180;5768;51.476;7.210;2023-01-31T16:12:53;100615.00;;;9.80
11424;BMP180;5768;51.476;7.210;2023-01-31T16:18:01;100619.00;;;9.90
11424;BMP180;5768;51.476;7.210;2023-01-31T16:23:04;100618.00;;;10.00
11424;BMP180;5768;51.476;7.210;2023-01-31T16:28:11;100627.00;;;10.00
11424;BMP180;5768;51.476;7.210;2023-01-31T16:33:17;100628.00;;;10.10
11424;BMP180;5768;51.476;7.210;2023-01-31T16:38:25;100632.00;;;10.20
11424;BMP180;5768;51.476;7.210;2023-01-31T16:43:30;100622.00;;;10.10
11424;BMP180;5768;51.476;7.210;2023-01-31T16:48:36;100621.00;;;10.10
11424;BMP180;5768;51.476;7.210;2023-01-31T16:53:40;100622.00;;;10.20
11424;BMP180;5768;51.476;7.210;2023-01-31T16:58:48;100631.00;;;10.20
11424;BMP180;5768;51.476;7.210;2023-01-31T17:04:13;100630.00;;;10.30
11424;BMP180;5768;51.476;7.210;2023-01-31T17:09:20;100651.00;;;10.30
11424;BMP180;5768;51.476;7.210;2023-01-31T17:14:24;100649.00;;;10.30
11424;BMP180;5768;51.476;7.210;2023-01-31T17:19:26;100655.00;;;10.40
11424;BMP180;5768;51.476;7.210;2023-01-31T17:24:29;100644.00;;;10.40
11424;BMP180;5768;51.476;7.210;2023-01-31T17:29:32;100651.00;;;10.40
11424;BMP180;5768;51.476;7.210;2023-01-31T17:34:34;100643.00;;;10.40
11424;BMP180;5768;51.476;7.210;2023-01-31T17:39:36;100649.00;;;10.50
11424;BMP180;5768;51.476;7.210;2023-01-31T17:44:40;100621.00;;;10.40
11424;BMP180;5768;51.476;7.210;2023-01-31T17:49:42;100614.00;;;10.30
11424;BMP180;5768;51.476;7.210;2023-01-31T17:54:44;100619.00;;;10.30
11424;BMP180;5768;51.476;7.210;2023-01-31T17:59:48;100602.00;;;10.30
11424;BMP180;5768;51.476;7.210;2023-01-31T18:04:50;100622.00;;;10.40
11424;BMP180;5768;51.476;7.210;2023-01-31T18:09:52;100616.00;;;10.40
11424;BMP180;5768;51.476;7.210;2023-01-31T18:14:56;100629.00;;;10.40
11424;BMP180;5768;51.476;7.210;2023-01-31T18:19:58;100616.00;;;10.40
11424;BMP180;5768;51.476;7.210;2023-01-31T18:25:00;100631.00;;;10.40
11424;BMP180;5768;51.476;7.210;2023-01-31T18:30:05;100638.00;;;10.40
11424;BMP180;5768;51.476;7.210;2023-01-31T18:35:08;100633.00;;;10.30
11424;BMP180;5768;51.476;7.210;2023-01-31T18:40:11;100629.00;;;10.30
11424;BMP180;5768;51.476;7.210;2023-01-31T18:45:16;100644.00;;;10.00
11424;BMP180;5768;51.476;7.210;2023-01-31T18:50:18;100636.00;;;9.90
11424;BMP180;5768;51.476;7.210;2023-01-31T18:55:22;100639.00;;;9.80
11424;BMP180;5768;51.476;7.210;2023-01-31T19:00:26;100650.00;;;9.70
11424;BMP180;5768;51.476;7.210;2023-01-31T19:05:30;100649.00;;;9.60
11424;BMP180;5768;51.476;7.210;2023-01-31T19:10:32;100650.00;;;9.60
11424;BMP180;5768;51.476;7.210;2023-01-31T19:15:36;100649.00;;;9.60
11424;BMP180;5768;51.476;7.210;2023-01-31T19:20:38;100667.00;;;9.50
11424;BMP180;5768;51.476;7.210;2023-01-31T19:25:40;100659.00;;;9.60
11424;BMP180;5768;51.476;7.210;2023-01-31T19:30:44;100667.00;;;9.70
11424;BMP180;5768;51.476;7.210;2023-01-31T19:35:46;100669.00;;;9.80
11424;BMP180;5768;51.476;7.210;2023-01-31T19:40:48;100665.00;;;9.70
11424;BMP180;5768;51.476;7.210;2023-01-31T19:45:53;100666.00;;;9.70
11424;BMP180;5768;51.476;7.210;2023-01-31T19:50:56;100670.00;;;9.70
11424;BMP180;5768;51.476;7.210;2023-01-31T19:55:58;100688.00;;;9.80
11424;BMP180;5768;51.476;7.210;2023-01-31T20:01:04;100685.00;;;9.70
11424;BMP180;5768;51.476;7.210;2023-01-31T20:06:10;100683.00;;;9.50
11424;BMP180;5768;51.476;7.210;2023-01-31T20:11:12;100686.00;;;9.30
11424;BMP180;5768;51.476;7.210;2023-01-31T20:16:17;100692.00;;;9.20
11424;BMP180;5768;51.476;7.210;2023-01-31T20:21:20;100674.00;;;9.10
11424;BMP180;5768;51.476;7.210;2023-01-31T20:26:23;100687.00;;;9.00
11424;BMP180;5768;51.476;7.210;2023-01-31T20:31:28;100661.00;;;9.00
11424;BMP180;5768;51.476;7.210;2023-01-31T20:36:31;100673.00;;;8.90
11424;BMP180;5768;51.476;7.210;2023-01-31T20:41:33;100671.00;;;8.80
11424;BMP180;5768;51.476;7.210;2023-01-31T20:46:37;100666.00;;;8.80
11424;BMP180;5768;51.476;7.210;2023-01-31T20:51:39;100665.00;;;8.70
11424;BMP180;5768;51.476;7.210;2023-01-31T20:56:41;100661.00;;;8.70
11424;BMP180;5768;51.476;7.210;2023-01-31T21:01:47;100661.00;;;8.70
11424;BMP180;5768;51.476;7.210;2023-01-31T21:06:49;100653.00;;;8.60
11424;BMP180;5768;51.476;7.210;2023-01-31T21:11:51;100642.00;;;8.60
11424;BMP180;5768;51.476;7.210;2023-01-31T21:16:55;100640.00;;;8.60
11424;BMP180;5768;51.476;7.210;2023-01-31T21:21:57;100635.00;;;8.50
11424;BMP180;5768;51.476;7.210;2023-01-31T21:26:59;100628.00;;;8.50
11424;BMP180;5768;51.476;7.210;2023-01-31T21:32:04;100636.00;;;8.50
11424;BMP180;5768;51.476;7.210;2023-01-31T21:37:06;100628.00;;;8.50
11424;BMP180;5768;51.476;7.210;2023-01-31T21:42:09;100644.00;;;8.50
11424;BMP180;5768;51.476;7.210;2023-01-31T21:47:20;100647.00;;;8.40
11424;BMP180;5768;51.476;7.210;2023-01-31T21:52:23;100644.00;;;8.40
11424;BMP180;5768;51.476;7.210;2023-01-31T21:57:25;100647.00;;;8.40
11424;BMP180;5768;51.476;7.210;2023-01-31T22:02:28;100623.00;;;8.30
11424;BMP180;5768;51.476;7.210;2023-01-31T22:07:31;100608.00;;;8.30
11424;BMP180;5768;51.476;7.210;2023-01-31T22:12:33;100620.00;;;8.30
11424;BMP180;5768;51.476;7.210;2023-01-31T22:17:37;100618.00;;;8.30
11424;BMP180;5768;51.476;7.210;2023-01-31T22:22:42;100611.00;;;8.30
11424;BMP180;5768;51.476;7.210;2023-01-31T22:27:44;100599.00;;;8.30
11424;BMP180;5768;51.476;7.210;2023-01-31T22:32:48;100604.00;;;8.40
11424;BMP180;5768;51.476;7.210;2023-01-31T22:37:50;100610.00;;;8.50
11424;BMP180;5768;51.476;7.210;2023-01-31T22:42:52;100600.00;;;8.40
11424;BMP180;5768;51.476;7.210;2023-01-31T22:47:56;100604.00;;;8.40
11424;BMP180;5768;51.476;7.210;2023-01-31T22:52:59;100600.00;;;8.40
11424;BMP180;5768;51.476;7.210;2023-01-31T22:58:01;100596.00;;;8.40
11424;BMP180;5768;51.476;7.210;2023-01-31T23:03:05;100586.00;;;8.40
11424;BMP180;5768;51.476;7.210;2023-01-31T23:08:08;100579.00;;;8.40
11424;BMP180;5768;51.476;7.210;2023-01-31T23:13:11;100577.00;;;8.40
11424;BMP180;5768;51.476;7.210;2023-01-31T23:18:16;100576.00;;;8.40
11424;BMP180;5768;51.476;7.210;2023-01-31T23:23:18;100562.00;;;8.30
11424;BMP180;5768;51.476;7.210;2023-01-31T23:28:23;100562.00;;;8.40
11424;BMP180;5768;51.476;7.210;2023-01-31T23:33:27;100561.00;;;8.50
11424;BMP180;5768;51.476;7.210;2023-01-31T23:38:29;100550.00;;;8.70
11424;BMP180;5768;51.476;7.210;2023-01-31T23:43:31;100560.00;;;8.80
11424;BMP180;5768;51.476;7.210;2023-01-31T23:48:35;100545.00;;;8.80
11424;BMP180;5768;51.476;7.210;2023-01-31T23:53:39;100553.00;;;8.80
11424;BMP180;5768;51.476;7.210;2023-01-31T23:58:44;100568.00;;;8.80
